Time;durP1;ratioP1;P1;durP2;ratioP2;P2;SDS_P1;SDS_P2;PMS_P1;PMS_P2;Temp;Humidity;BMP_temperature;BMP_pressure;BME280_temperature;BME280_humidity;BME280_pressure;Samples;Min_cycle;Max_cycle;Signal;HPM_P1;HPM_P2
2023/09/25 00:01:01;;;;;;;;;3.33;3.33;;;;;15.96;58.51;101333.34;5076480;27;45339;-77
2023/09/25 00:03:27;;;;;;;;;6.00;3.00;;;;;15.96;58.76;101335.16;5076756;28;45427;-77
2023/09/25 00:05:54;;;;;;;;;2.00;2.00;;;;;15.93;58.67;101337.09;5092861;27;45600;-76
2023/09/25 00:08:19;;;;;;;;;2.00;2.00;;;;;15.88;58.76;101328.47;5076439;28;46330;-77
2023/09/25 00:10:45;;;;;;;;;3.00;3.00;;;;;15.97;58.73;101343.09;5057494;28;45335;-77
2023/09/25 00:13:10;;;;;;;;;3.00;3.00;;;;;15.83;58.87;101321.69;5056130;28;56360;-77
2023/09/25 00:15:42;;;;;;;;;2.00;2.00;;;;;15.83;59.23;101330.59;5056617;28;45348;-77
2023/09/25 00:18:08;;;;;;;;;3.67;3.33;;;;;15.91;59.20;101341.69;5055762;28;45279;-78
2023/09/25 00:20:33;;;;;;;;;5.67;4.00;;;;;15.76;59.04;101315.91;5055872;28;45372;-77
2023/09/25 00:22:58;;;;;;;;;3.00;3.00;;;;;15.87;59.02;101334.81;5056123;28;45718;-78
2023/09/25 00:25:24;;;;;;;;;3.33;2.00;;;;;15.55;58.97;101287.78;5056117;28;45727;-77
2023/09/25 00:27:49;;;;;;;;;4.67;4.00;;;;;15.79;59.05;101323.75;5056016;28;45739;-76
2023/09/25 00:30:15;;;;;;;;;4.33;2.00;;;;;15.91;59.00;101344.38;5054544;28;45410;-78
2023/09/25 00:32:40;;;;;;;;;3.33;3.33;;;;;15.80;58.98;101336.19;5056355;28;45414;-77
2023/09/25 00:35:07;;;;;;;;;4.00;4.00;;;;;15.90;58.88;101342.66;5056379;28;45461;-77
2023/09/25 00:37:32;;;;;;;;;4.00;4.00;;;;;15.89;59.10;101346.31;5055859;28;45386;-78
2023/09/25 00:40:11;;;;;;;;;3.00;3.00;;;;;15.65;59.21;101310.38;5055783;28;45314;-76
2023/09/25 00:42:41;;;;;;;;;3.33;3.00;;;;;15.74;59.28;101330.34;5055971;28;45421;-76
2023/09/25 00:45:08;;;;;;;;;2.00;2.00;;;;;15.86;59.27;101341.13;5055815;28;45418;-77
2023/09/25 00:47:34;;;;;;;;;3.67;3.67;;;;;15.70;59.23;101316.28;5055425;28;45433;-77
2023/09/25 00:50:00;;;;;;;;;3.67;2.00;;;;;15.51;58.99;101288.94;5055268;28;45397;-78
2023/09/25 00:52:25;;;;;;;;;4.33;0.00;;;;;15.76;59.35;101329.31;5055742;28;45496;-76
2023/09/25 00:54:52;;;;;;;;;2.33;2.33;;;;;15.77;59.75;101336.41;5054274;28;45347;-78
2023/09/25 00:57:17;;;;;;;;;3.00;3.00;;;;;15.77;59.85;101349.81;5055567;28;46083;-77
2023/09/25 00:59:43;;;;;;;;;2.67;2.00;;;;;15.53;59.77;101303.09;5055399;28;45463;-77
2023/09/25 01:02:10;;;;;;;;;2.00;2.00;;;;;15.69;59.66;101333.34;5055839;28;45260;-80
2023/09/25 01:04:36;;;;;;;;;5.00;3.67;;;;;15.67;60.06;101329.03;5055982;28;45364;-79
2023/09/25 01:07:02;;;;;;;;;2.00;2.00;;;;;15.71;60.01;101336.78;5055612;28;46126;-78
2023/09/25 01:09:27;;;;;;;;;6.00;4.33;;;;;15.63;60.57;101318.53;5063137;28;45636;-78
2023/09/25 01:11:53;;;;;;;;;3.67;3.00;;;;;15.61;60.28;101317.75;5078929;28;45370;-78
2023/09/25 01:14:18;;;;;;;;;6.00;4.33;;;;;15.62;60.08;101323.97;5080173;27;45588;-79
2023/09/25 01:16:43;;;;;;;;;5.00;4.00;;;;;15.59;60.65;101321.47;5079844;28;51097;-80
2023/09/25 01:19:09;;;;;;;;;2.00;2.00;;;;;15.47;60.58;101314.22;5079074;28;57525;-78
2023/09/25 01:21:36;;;;;;;;;2.00;2.00;;;;;15.49;60.40;101323.88;5080282;28;45466;-76
2023/09/25 01:24:02;;;;;;;;;4.33;3.00;;;;;15.49;60.83;101333.72;5078145;28;45398;-79
2023/09/25 01:26:28;;;;;;;;;4.00;2.33;;;;;15.43;61.19;101326.09;5079452;28;46579;-82
2023/09/25 01:28:53;;;;;;;;;4.00;3.00;;;;;15.40;61.66;101329.84;5077460;28;45604;-78
2023/09/25 01:31:19;;;;;;;;;3.67;3.67;;;;;15.18;61.46;101298.19;5079223;28;45284;-79
2023/09/25 01:33:44;;;;;;;;;2.67;2.67;;;;;15.33;61.83;101326.69;5079462;28;45538;-79
2023/09/25 01:36:11;;;;;;;;;3.67;3.67;;;;;15.20;61.59;101320.38;5078500;28;46883;-77
2023/09/25 01:38:37;;;;;;;;;2.00;2.00;;;;;15.09;61.83;101301.44;5077634;27;45524;-77
2023/09/25 01:41:03;;;;;;;;;5.00;3.33;;;;;15.24;62.10;101332.66;5078420;27;45178;-77
2023/09/25 01:43:28;;;;;;;;;3.00;3.00;;;;;15.23;62.10;101335.41;5075279;28;45357;-77
2023/09/25 01:45:53;;;;;;;;;3.33;3.33;;;;;15.20;62.42;101336.47;5057942;28;56176;-78
2023/09/25 01:48:19;;;;;;;;;3.00;3.00;;;;;15.12;62.52;101325.41;5058133;28;53802;-77
2023/09/25 01:50:44;;;;;;;;;7.00;4.00;;;;;15.10;63.25;101335.31;5058877;28;45507;-77
2023/09/25 01:53:09;;;;;;;;;5.33;4.33;;;;;15.03;63.02;101317.94;5058768;28;45499;-76
2023/09/25 01:55:36;;;;;;;;;3.67;3.67;;;;;14.91;63.18;101305.31;5061241;28;45359;-78
2023/09/25 01:58:08;;;;;;;;;4.33;3.33;;;;;14.96;64.07;101313.91;5078350;27;45321;-77
2023/09/25 02:00:34;;;;;;;;;4.00;4.00;;;;;14.92;64.14;101315.06;5078708;27;45366;-77
2023/09/25 02:03:00;;;;;;;;;3.33;3.33;;;;;14.86;64.19;101313.63;5078776;27;45501;-77
2023/09/25 02:05:26;;;;;;;;;0.00;0.00;;;;;14.80;64.44;101310.47;5076919;28;46525;-77
2023/09/25 02:07:51;;;;;;;;;4.67;4.67;;;;;14.79;64.74;101314.09;5077333;28;45457;-77
2023/09/25 02:10:16;;;;;;;;;4.00;4.00;;;;;14.76;65.13;101315.16;5078727;28;45428;-76
2023/09/25 02:12:42;;;;;;;;;3.00;3.00;;;;;14.65;64.69;101288.19;5078611;27;45515;-78
2023/09/25 02:15:08;;;;;;;;;6.00;6.00;;;;;14.61;65.34;101295.56;5076971;28;46024;-79
2023/09/25 02:17:34;;;;;;;;;4.67;3.67;;;;;14.67;65.63;101307.69;5077086;28;45249;-78
2023/09/25 02:22:39;;;;;;;;;3.67;3.67;;;;;14.64;65.31;101314.09;5078447;27;45384;-77
2023/09/25 02:25:05;;;;;;;;;5.33;3.33;;;;;14.46;65.99;101280.44;5077948;27;46053;-77
2023/09/25 02:27:30;;;;;;;;;2.00;2.00;;;;;14.50;65.97;101286.47;5078287;28;45840;-76
2023/09/25 02:29:56;;;;;;;;;3.00;3.00;;;;;14.61;65.95;101314.31;5077968;28;45404;-77
2023/09/25 02:32:21;;;;;;;;;4.00;4.00;;;;;14.63;65.84;101323.09;5072947;28;45505;-78
2023/09/25 02:34:46;;;;;;;;;5.00;4.00;;;;;14.45;65.98;101305.47;5057960;28;45401;-78
2023/09/25 02:37:12;;;;;;;;;3.00;3.00;;;;;14.61;65.58;101322.31;5057666;28;45286;-79
2023/09/25 02:39:38;;;;;;;;;4.00;3.00;;;;;14.49;66.10;101301.66;5064114;28;45583;-78
2023/09/25 02:42:03;;;;;;;;;4.00;2.33;;;;;14.42;66.26;101281.53;5077237;27;45392;-78
2023/09/25 02:44:29;;;;;;;;;3.00;3.00;;;;;14.62;65.83;101318.69;5077418;28;46447;-79
2023/09/25 02:46:54;;;;;;;;;4.00;4.00;;;;;14.65;65.84;101310.47;5077523;28;45190;-77
2023/09/25 02:49:19;;;;;;;;;4.33;3.00;;;;;14.61;66.24;101306.28;5077489;27;45366;-78
2023/09/25 02:51:45;;;;;;;;;5.33;3.00;;;;;14.60;66.21;101301.88;5077835;27;45516;-78
2023/09/25 02:54:10;;;;;;;;;3.00;3.00;;;;;14.63;65.89;101298.13;5075822;27;45353;-76
2023/09/25 02:56:35;;;;;;;;;4.00;3.00;;;;;14.55;65.87;101301.28;5057630;28;47316;-79
2023/09/25 02:59:02;;;;;;;;;4.00;4.00;;;;;14.53;66.25;101311.22;5057562;28;45259;-78
2023/09/25 03:01:27;;;;;;;;;4.00;4.00;;;;;14.47;66.45;101314.28;5058464;28;45517;-79
2023/09/25 03:03:52;;;;;;;;;3.33;3.33;;;;;14.49;66.87;101325.75;5057229;28;46052;-78
2023/09/25 03:06:18;;;;;;;;;3.33;3.33;;;;;14.38;67.01;101304.09;5058866;28;45413;-79
2023/09/25 03:08:43;;;;;;;;;5.00;3.67;;;;;14.46;66.67;101317.91;5077630;27;45654;-75
2023/09/25 03:11:09;;;;;;;;;5.67;3.67;;;;;14.28;67.09;101294.88;5077583;28;45615;-77
2023/09/25 03:13:34;;;;;;;;;4.33;4.33;;;;;14.35;67.25;101297.13;5077218;28;45443;-77
2023/09/25 03:15:59;;;;;;;;;4.00;4.00;;;;;14.28;66.70;101292.22;5077727;27;45451;-78
2023/09/25 03:18:25;;;;;;;;;5.00;5.00;;;;;14.32;66.69;101305.34;5078632;27;45483;-77
2023/09/25 03:20:50;;;;;;;;;3.33;3.00;;;;;14.18;66.80;101284.72;5078093;28;45409;-77
2023/09/25 03:23:16;;;;;;;;;5.00;5.00;;;;;14.41;67.41;101319.97;5077052;28;46289;-78
2023/09/25 03:25:41;;;;;;;;;3.33;3.33;;;;;14.13;67.10;101278.81;5077354;27;45341;-77
2023/09/25 03:28:07;;;;;;;;;5.33;4.00;;;;;14.24;67.07;101291.56;5077348;27;45392;-77
2023/09/25 03:30:32;;;;;;;;;5.33;4.00;;;;;14.41;66.94;101319.97;5077695;27;45345;-77
2023/09/25 03:32:58;;;;;;;;;4.00;4.00;;;;;14.29;67.76;101307.31;5076065;27;45408;-75
2023/09/25 03:35:23;;;;;;;;;5.00;4.67;;;;;14.31;67.16;101316.09;5077254;27;45362;-76
2023/09/25 03:37:49;;;;;;;;;5.67;5.00;;;;;14.39;67.43;101335.25;5077039;27;45370;-78
2023/09/25 03:40:14;;;;;;;;;5.67;5.00;;;;;14.38;67.58;101333.53;5076984;27;45615;-77
2023/09/25 03:42:40;;;;;;;;;4.33;4.33;;;;;14.34;67.27;101334.69;5076709;27;46294;-77
2023/09/25 03:45:07;;;;;;;;;3.00;3.00;;;;;14.22;67.20;101319.34;5056619;28;45212;-78
2023/09/25 03:47:34;;;;;;;;;6.00;6.00;;;;;14.33;67.38;101343.66;5057014;28;45326;-75
2023/09/25 03:49:59;;;;;;;;;5.00;3.33;;;;;14.17;66.77;101322.28;5073854;28;45603;-78
2023/09/25 03:52:25;;;;;;;;;6.00;4.67;;;;;14.25;67.47;101340.56;5076901;27;45501;-77
2023/09/25 03:54:50;;;;;;;;;3.33;3.33;;;;;14.20;66.94;101338.19;5076082;27;45448;-80
2023/09/25 03:57:15;;;;;;;;;4.00;4.00;;;;;14.02;67.41;101315.16;5076467;28;45454;-78
2023/09/25 03:59:41;;;;;;;;;2.67;2.67;;;;;14.11;68.20;101328.00;5076713;27;45405;-76
2023/09/25 04:02:06;;;;;;;;;5.00;5.00;;;;;14.10;67.60;101342.34;5076173;28;45411;-78
2023/09/25 04:04:31;;;;;;;;;3.67;3.67;;;;;13.92;68.40;101322.88;5092085;27;45661;-78
2023/09/25 04:06:57;;;;;;;;;8.00;5.00;;;;;13.91;67.90;101322.94;5076941;28;45481;-77
2023/09/25 04:09:22;;;;;;;;;3.00;3.00;;;;;13.88;68.33;101316.84;5077145;28;45317;-80
2023/09/25 04:11:48;;;;;;;;;6.00;6.00;;;;;14.07;68.12;101354.09;5056302;28;45522;-77
2023/09/25 04:14:13;;;;;;;;;5.00;5.00;;;;;13.81;68.47;101317.31;5054926;28;45418;-77
2023/09/25 04:16:39;;;;;;;;;4.00;4.00;;;;;14.08;68.06;101361.16;5056484;28;45357;-80
2023/09/25 04:19:04;;;;;;;;;3.00;3.00;;;;;13.88;68.51;101340.91;5056486;28;45256;-78
2023/09/25 04:21:31;;;;;;;;;5.00;5.00;;;;;14.10;67.98;101363.75;5056312;28;46217;-78
2023/09/25 04:23:57;;;;;;;;;4.00;4.00;;;;;13.78;68.43;101309.44;5076515;28;45498;-79
2023/09/25 04:26:23;;;;;;;;;5.67;4.00;;;;;14.02;68.07;101339.25;5077651;27;45235;-77
2023/09/25 04:28:48;;;;;;;;;2.33;2.33;;;;;14.12;68.15;101356.47;5076687;28;45315;-81
2023/09/25 04:31:14;;;;;;;;;6.33;4.00;;;;;14.13;68.21;101358.19;5076309;27;45502;-79
2023/09/25 04:33:40;;;;;;;;;2.00;2.00;;;;;14.13;68.17;101348.34;5076262;27;45396;-76
2023/09/25 04:36:09;;;;;;;;;6.00;4.00;;;;;13.89;68.07;101328.41;5075049;28;45400;-78
2023/09/25 04:38:35;;;;;;;;;5.00;5.00;;;;;14.06;68.23;101355.03;5076357;27;45560;-81
2023/09/25 04:41:00;;;;;;;;;4.33;4.33;;;;;13.98;67.90;101338.56;5076596;28;46425;-77
2023/09/25 04:43:26;;;;;;;;;5.00;5.00;;;;;14.07;68.09;101354.09;5079228;28;45355;-82
2023/09/25 04:45:52;;;;;;;;;5.67;4.00;;;;;14.08;68.38;101361.16;5081358;28;45500;-79
2023/09/25 04:48:19;;;;;;;;;5.33;4.00;;;;;14.01;68.28;101343.72;5082523;27;45562;-77
2023/09/25 04:50:44;;;;;;;;;3.00;3.00;;;;;14.08;68.15;101361.16;5080151;28;46039;-80
2023/09/25 04:53:10;;;;;;;;;4.00;4.00;;;;;14.11;68.04;101366.31;5080236;27;45504;-77
2023/09/25 04:55:38;;;;;;;;;6.00;4.00;;;;;13.97;68.00;101342.19;5080030;28;45436;-79
2023/09/25 04:58:03;;;;;;;;;4.67;4.33;;;;;14.09;68.17;101372.72;5079897;27;45477;-76
2023/09/25 05:00:28;;;;;;;;;6.33;5.00;;;;;13.98;68.96;101365.31;5079325;28;45569;-77
2023/09/25 05:02:55;;;;;;;;;5.33;5.00;;;;;13.78;68.94;101346.88;5079379;27;45351;-78
2023/09/25 05:05:22;;;;;;;;;5.00;4.00;;;;;13.54;68.75;101307.25;5079029;27;45259;-77
2023/09/25 05:07:49;;;;;;;;;6.33;6.33;;;;;13.78;68.72;101363.75;5078908;27;46677;-78
2023/09/25 05:10:17;;;;;;;;;6.00;6.00;;;;;13.91;68.89;101377.28;5078294;27;46004;-78
2023/09/25 05:12:43;;;;;;;;;5.67;5.67;;;;;13.58;68.71;101319.47;5077594;28;45484;-79
2023/09/25 05:15:10;;;;;;;;;6.67;6.67;;;;;13.76;68.59;101349.63;5079284;27;45353;-79
2023/09/25 05:17:36;;;;;;;;;7.33;4.00;;;;;14.01;68.47;101386.53;5062888;27;45407;-80
2023/09/25 05:20:11;;;;;;;;;4.67;4.67;;;;;14.02;68.93;101382.88;5058528;28;46101;-77
2023/09/25 05:22:40;;;;;;;;;5.00;5.00;;;;;13.77;68.93;101335.31;5058989;28;45172;-77
2023/09/25 05:25:10;;;;;;;;;7.67;5.67;;;;;13.98;69.11;101385.84;5058777;28;45396;-79
2023/09/25 05:27:36;;;;;;;;;3.00;3.00;;;;;13.97;69.13;101386.78;5059077;28;45438;-77
2023/09/25 05:30:06;;;;;;;;;5.33;4.00;;;;;13.82;68.77;101367.16;5076673;28;45660;-76
2023/09/25 05:32:37;;;;;;;;;4.00;4.00;;;;;13.82;68.44;101359.13;5079118;28;45400;-78
2023/09/25 05:35:04;;;;;;;;;7.67;5.67;;;;;13.98;68.62;101372.47;5078031;28;45284;-78
2023/09/25 05:37:30;;;;;;;;;3.00;3.00;;;;;13.85;68.74;101348.25;5071543;27;45499;-80
2023/09/25 05:39:55;;;;;;;;;4.67;4.67;;;;;13.86;68.97;101356.19;5059814;28;45374;-80
2023/09/25 05:42:20;;;;;;;;;4.67;4.00;;;;;13.84;69.45;101365.25;5061340;28;45420;-80
2023/09/25 05:44:46;;;;;;;;;9.67;9.00;;;;;13.80;69.28;101367.25;5072294;28;48864;-79
2023/09/25 05:47:12;;;;;;;;;8.00;5.00;;;;;13.91;69.44;101379.97;5058987;28;45389;-77
2023/09/25 05:49:37;;;;;;;;;6.00;4.33;;;;;13.95;68.80;101384.22;5060184;28;45396;-78
2023/09/25 05:52:03;;;;;;;;;5.33;5.33;;;;;13.85;68.91;101369.63;5058893;28;45877;-79
2023/09/25 05:54:29;;;;;;;;;8.33;7.00;;;;;13.97;68.68;101387.66;5062658;28;45232;-77
2023/09/25 05:56:54;;;;;;;;;3.67;3.67;;;;;14.03;68.59;101399.81;5057961;28;45219;-77
2023/09/25 05:59:19;;;;;;;;;6.67;5.33;;;;;13.96;69.18;101385.06;5057656;28;65595;-81
2023/09/25 06:01:45;;;;;;;;;5.00;5.00;;;;;14.11;68.78;101406.44;5070226;28;64435;-79
2023/09/25 06:04:10;;;;;;;;;8.67;6.00;;;;;14.10;68.20;101395.84;5094067;27;45315;-77
2023/09/25 06:06:36;;;;;;;;;5.00;5.00;;;;;14.19;67.87;101392.59;5077077;28;45533;-79
2023/09/25 06:09:02;;;;;;;;;5.00;5.00;;;;;14.28;67.80;101404.59;5075939;27;46240;-78
2023/09/25 06:11:28;;;;;;;;;4.33;4.33;;;;;13.82;68.18;101329.72;5074079;28;45753;-84
2023/09/25 06:13:54;;;;;;;;;6.33;3.33;;;;;14.28;67.73;101394.75;5083866;27;45404;-80
2023/09/25 06:16:19;;;;;;;;;7.00;5.33;;;;;14.41;67.56;101409.13;5080646;28;45484;-80
2023/09/25 06:18:45;;;;;;;;;6.67;5.33;;;;;14.52;67.13;101415.69;5065859;28;45612;-82
2023/09/25 06:21:13;;;;;;;;;6.33;6.33;;;;;14.33;66.78;101381.13;5072925;28;45519;-80
2023/09/25 06:23:39;;;;;;;;;5.67;5.33;;;;;14.58;66.42;101408.16;5058959;28;45304;-79
2023/09/25 06:26:06;;;;;;;;;10.33;9.67;;;;;14.60;66.40;101400.91;5058964;28;45228;-81
2023/09/25 06:28:32;;;;;;;;;8.00;6.00;;;;;14.65;65.97;101400.63;5060584;28;45994;-78
2023/09/25 06:30:58;;;;;;;;;9.00;7.33;;;;;14.67;66.43;101393.38;5058014;28;45497;-80
2023/09/25 06:33:23;;;;;;;;;7.67;6.00;;;;;14.86;66.00;101419.91;5058337;28;45371;-79
2023/09/25 06:35:49;;;;;;;;;6.00;6.00;;;;;14.99;65.46;101407.50;5073832;28;45604;-80
2023/09/25 06:38:15;;;;;;;;;8.00;8.00;;;;;15.02;65.02;101418.00;5057869;28;46157;-80
2023/09/25 06:40:45;;;;;;;;;4.67;4.67;;;;;15.11;64.89;101417.44;5073280;28;45854;-80
2023/09/25 06:43:12;;;;;;;;;6.33;5.00;;;;;15.13;64.83;101402.13;5057917;28;45722;-80
2023/09/25 06:45:38;;;;;;;;;5.67;5.00;;;;;15.15;63.96;101386.81;5057613;28;45472;-79
2023/09/25 06:48:03;;;;;;;;;9.00;5.67;;;;;15.14;63.61;101379.75;5057397;28;45421;-79
2023/09/25 06:50:29;;;;;;;;;6.67;4.00;;;;;15.21;63.43;101391.78;5057188;28;45342;-81
2023/09/25 06:52:54;;;;;;;;;7.33;6.67;;;;;15.42;63.67;101399.44;5056577;28;58346;-80
2023/09/25 06:55:20;;;;;;;;;7.33;7.00;;;;;16.14;60.93;101423.31;5057387;28;45457;-79
2023/09/25 06:57:45;;;;;;;;;5.33;5.33;;;;;16.23;60.69;101414.69;5055632;28;47006;-80
2023/09/25 07:00:11;;;;;;;;;7.33;6.33;;;;;16.15;60.67;101418.84;5056944;28;45440;-79
2023/09/25 07:02:37;;;;;;;;;3.67;3.67;;;;;16.13;60.38;101429.66;5057816;28;45329;-81
2023/09/25 07:05:02;;;;;;;;;7.00;7.00;;;;;16.15;60.58;101426.91;5075591;28;45321;-79
2023/09/25 07:07:28;;;;;;;;;7.00;6.00;;;;;16.28;59.99;101427.81;5076382;27;46184;-79
2023/09/25 07:09:53;;;;;;;;;6.33;5.00;;;;;16.20;59.78;101414.88;5067495;28;45908;-80
2023/09/25 07:12:19;;;;;;;;;1.00;1.00;;;;;16.25;59.67;101432.50;5061799;28;45425;-81
2023/09/25 07:14:55;;;;;;;;;7.00;7.00;;;;;16.24;59.51;101423.59;5068320;28;45294;-80
2023/09/25 07:17:21;;;;;;;;;6.33;6.33;;;;;16.31;59.40;101416.84;5060617;28;45994;-79
2023/09/25 07:19:55;;;;;;;;;6.67;6.67;;;;;16.44;59.20;101436.56;5072783;27;45382;-81
2023/09/25 07:22:22;;;;;;;;;10.00;6.67;;;;;16.52;59.06;101436.88;5071801;28;45360;-83
2023/09/25 07:24:49;;;;;;;;;7.67;7.67;;;;;16.47;59.08;101422.91;5076821;27;45303;-81
2023/09/25 07:27:14;;;;;;;;;11.67;8.33;;;;;16.65;58.75;101438.72;5071663;28;45357;-82
2023/09/25 07:29:45;;;;;;;;;6.67;5.00;;;;;16.77;58.11;101436.09;5078442;28;45403;-81
2023/09/25 07:32:11;;;;;;;;;8.00;8.00;;;;;16.76;58.05;101422.78;5077543;28;45335;-83
2023/09/25 07:34:37;;;;;;;;;7.67;7.33;;;;;16.77;57.73;101405.69;5081816;28;45560;-82
2023/09/25 07:37:04;;;;;;;;;8.00;8.00;;;;;17.00;57.86;101422.91;5077886;27;45517;-80
2023/09/25 07:39:30;;;;;;;;;10.67;8.00;;;;;17.02;57.45;101424.53;5078058;28;45499;-79
2023/09/25 07:41:56;;;;;;;;;9.00;9.00;;;;;16.80;57.90;101430.53;5079064;27;45408;-81
2023/09/25 07:44:26;;;;;;;;;7.00;7.00;;;;;16.71;57.85;101441.06;5078899;27;45405;-78
2023/09/25 07:46:53;;;;;;;;;10.67;8.33;;;;;16.56;58.63;101436.69;5078053;27;47290;-82
2023/09/25 07:49:19;;;;;;;;;10.00;10.00;;;;;16.53;58.39;101448.47;5077692;28;45230;-82
2023/09/25 07:51:44;;;;;;;;;10.00;7.00;;;;;16.41;58.81;101452.88;5077624;28;45226;-80
2023/09/25 07:54:10;;;;;;;;;7.33;6.00;;;;;16.32;59.27;101449.94;5077386;28;59333;-80
2023/09/25 07:56:36;;;;;;;;;10.00;8.00;;;;;16.27;59.57;101441.31;5063370;27;46491;-82
2023/09/25 07:59:02;;;;;;;;;8.33;6.00;;;;;16.22;59.29;101434.44;5058041;28;45334;-80
2023/09/25 08:01:29;;;;;;;;;10.00;10.00;;;;;16.30;60.04;101450.03;5057368;28;45426;-81
2023/09/25 08:03:56;;;;;;;;;9.67;9.67;;;;;16.24;59.65;101434.31;5057560;28;45500;-82
2023/09/25 08:06:24;;;;;;;;;15.00;10.00;;;;;16.41;59.47;101444.81;5061526;28;47662;-82
2023/09/25 08:08:50;;;;;;;;;12.67;10.67;;;;;16.48;59.46;101448.78;5077199;27;45462;-81
2023/09/25 08:11:17;;;;;;;;;8.00;8.00;;;;;16.53;59.01;101438.59;5077340;27;45413;-80
2023/09/25 08:13:42;;;;;;;;;10.00;10.00;;;;;16.75;58.89;101447.94;5076766;27;45510;-81
2023/09/25 08:16:08;;;;;;;;;11.00;9.00;;;;;16.85;58.24;101443.66;5060664;27;45478;-82
2023/09/25 08:18:33;;;;;;;;;8.67;8.33;;;;;16.84;58.11;101441.94;5056035;28;45772;-81
2023/09/25 08:20:59;;;;;;;;;7.00;7.00;;;;;16.99;57.89;101438.19;5055806;28;45222;-81
2023/09/25 08:23:24;;;;;;;;;9.67;8.33;;;;;16.77;57.50;101381.53;5057745;28;45570;-81
2023/09/25 08:25:50;;;;;;;;;10.00;9.67;;;;;17.15;57.26;101439.78;5055690;28;47051;-79
2023/09/25 08:28:15;;;;;;;;;11.00;9.33;;;;;17.13;57.10;101437.22;5057538;28;45284;-80
2023/09/25 08:30:41;;;;;;;;;9.00;9.00;;;;;17.34;56.68;101456.38;5057493;28;45173;-82
2023/09/25 08:33:09;;;;;;;;;8.67;8.67;;;;;17.16;56.75;101406.56;5069115;28;45554;-81
2023/09/25 08:35:34;;;;;;;;;13.33;11.67;;;;;17.50;56.67;101435.47;5075341;28;47495;-82
2023/09/25 08:38:00;;;;;;;;;11.00;9.00;;;;;17.60;56.20;101428.47;5077085;28;45440;-80
2023/09/25 08:40:27;;;;;;;;;10.00;10.00;;;;;17.79;55.89;101444.16;5076027;28;56699;-81
2023/09/25 08:42:53;;;;;;;;;13.33;10.33;;;;;17.84;56.07;101435.72;5076680;28;45640;-81
2023/09/25 08:45:21;;;;;;;;;10.67;10.67;;;;;17.88;55.57;101426.50;5074000;28;46695;-80
2023/09/25 08:47:46;;;;;;;;;10.00;10.00;;;;;17.93;55.85;101432.38;5075708;28;45239;-79
2023/09/25 08:50:12;;;;;;;;;10.00;9.67;;;;;18.06;55.63;101430.50;5075828;27;45444;-80
2023/09/25 08:52:39;;;;;;;;;15.00;12.00;;;;;18.30;55.12;101446.66;5075956;28;45633;-79
2023/09/25 08:55:06;;;;;;;;;11.00;10.00;;;;;18.35;55.02;101422.06;5070275;28;46287;-80
2023/09/25 08:57:31;;;;;;;;;10.00;9.00;;;;;18.57;54.16;101438.34;5055555;28;45585;-80
2023/09/25 09:00:00;;;;;;;;;11.67;11.67;;;;;18.68;54.91;101446.50;5064661;28;45334;-80
2023/09/25 09:02:25;;;;;;;;;11.00;11.00;;;;;18.66;54.35;101443.06;5076065;27;45540;-81
2023/09/25 09:04:52;;;;;;;;;11.33;10.00;;;;;18.61;53.93;101438.94;5074796;27;45322;-81
2023/09/25 09:07:18;;;;;;;;;12.67;11.67;;;;;18.54;54.01;101433.19;5075886;27;45411;-80
2023/09/25 09:09:43;;;;;;;;;9.67;8.00;;;;;18.57;53.54;101449.97;5075997;27;45306;-80
2023/09/25 09:12:09;;;;;;;;;9.00;9.00;;;;;18.51;54.09;101449.59;5069557;28;45456;-78
2023/09/25 09:14:42;;;;;;;;;9.33;9.33;;;;;18.48;54.15;101444.41;5076155;27;46326;-80
2023/09/25 09:17:09;;;;;;;;;9.67;8.00;;;;;18.45;54.07;101447.34;5069572;27;45395;-78
2023/09/25 09:19:46;;;;;;;;;11.33;9.67;;;;;18.36;53.96;101442.63;5075749;28;45336;-79
2023/09/25 09:22:17;;;;;;;;;16.33;12.00;;;;;18.37;54.34;101460.53;5076413;28;45380;-80
2023/09/25 09:24:43;;;;;;;;;12.00;10.67;;;;;18.37;54.47;101457.84;5075961;27;46392;-80
2023/09/25 09:27:11;;;;;;;;;13.00;13.00;;;;;18.38;54.35;101454.19;5076855;27;45332;-80
2023/09/25 09:29:44;;;;;;;;;12.67;11.67;;;;;18.47;54.47;101440.00;5074680;27;45348;-82
2023/09/25 09:32:11;;;;;;;;;13.00;9.67;;;;;18.75;53.41;101455.84;5068595;28;45348;-79
2023/09/25 09:34:40;;;;;;;;;9.67;9.67;;;;;19.12;53.17;101469.13;5076264;28;45448;-82
2023/09/25 09:37:09;;;;;;;;;12.33;11.00;;;;;19.58;52.54;101476.34;5061968;28;45360;-80
2023/09/25 09:39:36;;;;;;;;;10.33;9.67;;;;;19.80;51.75;101472.78;5061384;28;45360;-79
2023/09/25 09:42:08;;;;;;;;;8.67;8.67;;;;;19.92;51.12;101466.38;5070292;28;45461;-80
2023/09/25 09:44:36;;;;;;;;;10.33;10.33;;;;;19.99;51.01;101470.28;5078939;27;47110;-80
2023/09/25 09:47:07;;;;;;;;;9.67;9.67;;;;;20.00;50.96;101459.38;5071846;27;45393;-80
2023/09/25 09:49:39;;;;;;;;;12.67;11.00;;;;;20.19;50.40;101474.06;5073590;28;45385;-80
2023/09/25 09:52:05;;;;;;;;;9.67;6.67;;;;;20.23;50.22;101480.94;5077476;27;45325;-79
2023/09/25 09:54:35;;;;;;;;;11.67;10.67;;;;;20.33;50.12;101471.09;5059030;28;45984;-78
2023/09/25 09:57:01;;;;;;;;;9.00;9.00;;;;;20.30;50.01;101479.41;5058825;28;45508;-80
2023/09/25 09:59:27;;;;;;;;;8.67;8.67;;;;;20.18;50.05;101470.53;5080850;27;45468;-81
2023/09/25 10:01:53;;;;;;;;;16.00;15.00;;;;;20.22;50.10;101474.69;5077902;28;45663;-79
2023/09/25 10:04:18;;;;;;;;;15.00;11.67;;;;;20.27;50.51;101475.13;5079141;27;45583;-81
2023/09/25 10:06:58;;;;;;;;;13.33;13.00;;;;;20.33;50.45;101484.59;5078560;27;45404;-81
2023/09/25 10:09:26;;;;;;;;;14.67;14.67;;;;;20.36;49.87;101487.03;5079377;27;45317;-82
2023/09/25 10:11:54;;;;;;;;;14.33;13.33;;;;;20.21;49.86;101456.75;5079436;27;45395;-84
2023/09/25 10:14:26;;;;;;;;;13.00;12.00;;;;;20.40;50.24;101466.00;5078877;27;45486;-83
2023/09/25 10:16:59;;;;;;;;;9.33;9.33;;;;;20.67;48.72;101484.50;5074900;28;45447;-79
2023/09/25 10:19:37;;;;;;;;;12.33;10.67;;;;;20.91;49.17;101483.28;5058933;28;45227;-81
2023/09/25 10:22:20;;;;;;;;;10.33;9.00;;;;;21.16;48.35;101482.03;5077371;28;45426;-80
2023/09/25 10:24:48;;;;;;;;;8.00;8.00;;;;;21.31;48.17;101484.41;5079025;28;45406;-79
2023/09/25 10:27:17;;;;;;;;;6.00;6.00;;;;;21.42;47.23;101471.66;5078666;28;45408;-79
2023/09/25 10:30:08;;;;;;;;;10.00;7.33;;;;;21.66;47.46;101476.75;5077028;28;45200;-78
2023/09/25 10:32:37;;;;;;;;;8.00;8.00;;;;;21.71;47.02;101444.72;5079201;27;45345;-79
2023/09/25 10:35:36;;;;;;;;;12.00;8.33;;;;;22.30;46.04;101468.28;5073815;27;45331;-82
2023/09/25 10:38:08;;;;;;;;;13.00;11.00;;;;;22.37;44.86;101442.31;5088936;27;45495;-80
2023/09/25 10:40:35;;;;;;;;;9.67;8.33;;;;;22.45;45.40;101470.56;5074672;28;45275;-79
2023/09/25 10:43:01;;;;;;;;;8.00;8.00;;;;;22.23;45.31;101433.75;5057599;28;45449;-77
2023/09/25 10:45:27;;;;;;;;;10.33;8.00;;;;;22.43;45.68;101461.72;5075223;28;47524;-82
2023/09/25 10:47:52;;;;;;;;;12.67;12.00;;;;;22.46;46.03;101451.44;5078036;27;45355;-80
2023/09/25 10:50:18;;;;;;;;;13.00;9.00;;;;;22.55;45.21;101444.34;5078464;27;45778;-80
2023/09/25 10:52:43;;;;;;;;;7.33;7.33;;;;;22.72;45.81;101454.44;5075037;27;45381;-82
2023/09/25 10:55:08;;;;;;;;;9.33;8.33;;;;;22.75;45.14;101413.47;5057490;28;46887;-80
2023/09/25 10:57:34;;;;;;;;;13.33;13.33;;;;;23.48;44.90;101454.47;5055972;28;45379;-80
2023/09/25 11:00:09;;;;;;;;;6.00;6.00;;;;;23.88;44.14;101451.44;5056310;28;45429;-81
2023/09/25 11:02:34;;;;;;;;;11.00;8.25;;;;;24.18;42.92;101457.56;5067077;28;45381;-80
2023/09/25 11:05:02;;;;;;;;;11.33;9.00;;;;;24.30;43.31;101456.34;5076036;28;75614;-80
2023/09/25 11:07:27;;;;;;;;;8.67;8.33;;;;;24.80;42.58;101467.53;5056007;28;45452;-80
2023/09/25 11:09:53;;;;;;;;;6.75;6.75;;;;;25.20;41.47;101472.47;5073931;28;45258;-79
2023/09/25 11:12:18;;;;;;;;;9.50;7.00;;;;;25.73;40.37;101474.16;5078985;27;46113;-80
2023/09/25 11:14:44;;;;;;;;;6.25;6.25;;;;;26.19;39.03;101474.69;5094422;27;46085;-80
2023/09/25 11:17:09;;;;;;;;;5.25;5.25;;;;;26.24;39.33;101466.00;5082133;28;45234;-79
2023/09/25 11:19:34;;;;;;;;;5.50;5.50;;;;;26.37;39.58;101477.31;5081219;27;45312;-81
2023/09/25 11:22:01;;;;;;;;;5.25;5.25;;;;;26.43;38.79;101463.88;5079381;28;45198;-81